Time;durP1;ratioP1;P1;durP2;ratioP2;P2;SDS_P1;SDS_P2;PMS_P1;PMS_P2;Temp;Humidity;BMP_temperature;BMP_pressure;BME280_temperature;BME280_humidity;BME280_pressure;Samples;Min_cycle;Max_cycle;Signal;HPM_P1;HPM_P2
2023/05/25 00:00:12;;;;;;;;;17.00;15.00;;;;;15.61;55.92;101363.84;5014831;28;45424;-71
2023/05/25 00:02:38;;;;;;;;;18.25;18.25;;;;;15.55;55.67;101365.97;5015513;28;45467;-67
2023/05/25 00:05:04;;;;;;;;;17.75;17.75;;;;;15.54;55.83;101370.41;4996891;28;46521;-70
2023/05/25 00:07:30;;;;;;;;;16.25;15.75;;;;;15.48;56.27;101357.44;5015110;28;45324;-73
2023/05/25 00:09:55;;;;;;;;;18.50;17.00;;;;;15.48;56.33;101363.63;5015785;28;45371;-71
2023/05/25 00:12:20;;;;;;;;;16.00;16.00;;;;;15.46;56.28;101364.59;5015324;28;45358;-75
2023/05/25 00:14:46;;;;;;;;;13.00;13.00;;;;;15.42;56.59;101363.03;5015353;28;46071;-74
2023/05/25 00:17:11;;;;;;;;;15.00;15.00;;;;;15.39;56.81;101361.41;5014708;28;45332;-76
2023/05/25 00:19:41;;;;;;;;;14.25;14.25;;;;;15.37;56.72;101360.59;5014301;28;45371;-74
2023/05/25 00:22:07;;;;;;;;;16.25;16.25;;;;;15.30;56.85;101357.41;5015333;28;45418;-72
2023/05/25 00:24:33;;;;;;;;;15.50;15.50;;;;;15.31;57.48;101359.13;5015068;28;45593;-75
2023/05/25 00:26:58;;;;;;;;;14.25;13.00;;;;;15.19;57.70;101349.94;5015207;28;51829;-74
2023/05/25 00:29:24;;;;;;;;;17.50;17.50;;;;;15.19;57.48;101365.84;5015123;28;45458;-76
2023/05/25 00:31:50;;;;;;;;;16.75;16.75;;;;;15.11;58.09;101352.09;5015446;28;45445;-76
2023/05/25 00:34:16;;;;;;;;;16.50;16.50;;;;;15.08;58.27;101356.69;5014201;28;45479;-75
2023/05/25 00:36:47;;;;;;;;;17.50;17.50;;;;;15.02;58.39;101353.41;5013501;28;45645;-71
2023/05/25 00:39:15;;;;;;;;;21.00;21.00;;;;;14.96;59.47;101361.63;5014891;28;45285;-75
2023/05/25 00:41:45;;;;;;;;;23.00;22.00;;;;;14.88;59.27;101353.19;5014018;28;45341;-75
2023/05/25 00:44:13;;;;;;;;;21.75;21.75;;;;;14.83;59.55;101357.81;5014551;28;45482;-77
2023/05/25 00:46:45;;;;;;;;;23.50;23.50;;;;;14.77;59.60;101356.31;5014542;28;45216;-73
2023/05/25 00:49:13;;;;;;;;;18.25;18.25;;;;;14.73;60.00;101358.22;5014774;28;45237;-73
2023/05/25 00:51:39;;;;;;;;;25.75;25.50;;;;;14.66;60.35;101351.47;5014759;28;45356;-74
2023/05/25 00:54:05;;;;;;;;;21.25;20.50;;;;;14.58;60.86;101354.47;5014508;28;45492;-75
2023/05/25 00:56:34;;;;;;;;;19.75;19.25;;;;;14.55;61.06;101362.53;5015178;28;45237;-69
2023/05/25 00:59:03;;;;;;;;;19.50;19.50;;;;;14.46;61.80;101350.56;5013531;28;45530;-68
2023/05/25 01:01:32;;;;;;;;;18.25;18.25;;;;;14.42;62.07;101356.06;5014832;28;45218;-74
2023/05/25 01:03:59;;;;;;;;;9.50;9.50;;;;;14.34;62.70;101364.34;5014839;28;45391;-69
2023/05/25 01:06:29;;;;;;;;;22.50;22.50;;;;;14.27;62.66;101355.78;5014632;28;45439;-73
2023/05/25 01:09:01;;;;;;;;;20.25;20.25;;;;;14.27;62.68;101366.38;5029269;28;45269;-73
2023/05/25 01:11:31;;;;;;;;;17.00;17.00;;;;;14.25;62.99;101354.16;5014056;28;45377;-76
2023/05/25 01:13:57;;;;;;;;;16.50;15.75;;;;;14.22;63.34;101355.13;5014343;28;45301;-72
2023/05/25 01:16:28;;;;;;;;;18.75;18.25;;;;;14.17;63.38;101351.81;5014501;28;45420;-73
2023/05/25 01:18:54;;;;;;;;;21.25;21.00;;;;;14.17;63.56;101350.06;5014447;28;45286;-72
2023/05/25 01:21:25;;;;;;;;;18.75;18.75;;;;;14.20;63.83;101353.50;5013110;28;45538;-75
2023/05/25 01:24:21;;;;;;;;;16.50;16.50;;;;;14.16;64.56;101353.63;5014347;28;46559;-75
2023/05/25 01:27:12;;;;;;;;;18.00;18.00;;;;;14.10;64.22;101353.03;5014309;28;45297;-75
2023/05/25 01:29:40;;;;;;;;;19.75;19.75;;;;;14.05;64.68;101352.34;5012577;28;45806;-74
2023/05/25 01:32:07;;;;;;;;;18.00;17.75;;;;;14.01;64.87;101351.66;5014594;28;45494;-74
2023/05/25 01:34:33;;;;;;;;;20.25;19.75;;;;;13.95;65.02;101350.09;5014412;28;45381;-75
2023/05/25 01:36:59;;;;;;;;;17.50;17.50;;;;;13.89;65.35;101353.00;5014621;28;45291;-70
2023/05/25 01:39:24;;;;;;;;;16.50;15.75;;;;;13.83;65.69;101356.78;5014470;28;45375;-73
2023/05/25 01:41:50;;;;;;;;;18.25;17.50;;;;;13.80;65.90;101351.63;5014794;28;45221;-75
2023/05/25 01:44:16;;;;;;;;;21.50;21.25;;;;;13.80;66.02;101366.63;5032475;28;48523;-74
2023/05/25 01:46:41;;;;;;;;;17.00;17.00;;;;;13.75;66.57;101366.78;5017560;28;45286;-73
2023/05/25 01:49:25;;;;;;;;;17.00;17.00;;;;;13.68;66.97;101357.38;5014527;28;45229;-73
2023/05/25 01:52:03;;;;;;;;;17.00;16.50;;;;;13.61;67.03;101363.84;5029268;28;45261;-72
2023/05/25 01:54:36;;;;;;;;;16.25;16.00;;;;;13.53;67.73;101370.31;5014374;28;46432;-76
2023/05/25 01:57:07;;;;;;;;;22.50;22.25;;;;;13.45;67.98;101364.47;5014414;28;45217;-77
2023/05/25 01:59:35;;;;;;;;;20.00;19.00;;;;;13.42;68.01;101367.22;5014609;28;45403;-76
2023/05/25 02:02:02;;;;;;;;;20.25;20.25;;;;;13.37;67.98;101367.41;5014403;28;45538;-72
2023/05/25 02:04:28;;;;;;;;;20.00;20.00;;;;;13.36;68.36;101373.59;5014828;28;46833;-76
2023/05/25 02:06:54;;;;;;;;;18.75;18.75;;;;;13.33;68.19;101375.50;5015578;28;45396;-72
2023/05/25 02:09:20;;;;;;;;;23.25;23.25;;;;;13.30;69.10;101369.41;5013815;28;45355;-77
2023/05/25 02:11:45;;;;;;;;;18.25;18.25;;;;;13.24;68.91;101366.13;5014117;28;45486;-71
2023/05/25 02:14:10;;;;;;;;;19.50;19.50;;;;;13.20;69.28;101372.44;5014134;28;46352;-72
2023/05/25 02:16:36;;;;;;;;;23.25;23.25;;;;;13.11;69.09;101368.41;5012417;28;45871;-72
2023/05/25 02:19:01;;;;;;;;;21.75;21.75;;;;;13.11;69.00;101365.75;5013643;28;45527;-77
2023/05/25 02:21:27;;;;;;;;;22.25;22.25;;;;;13.08;69.19;101374.66;5015191;28;45351;-73
2023/05/25 02:23:52;;;;;;;;;22.00;22.00;;;;;13.04;68.98;101372.19;5016690;28;46328;-76
2023/05/25 02:26:18;;;;;;;;;18.25;18.25;;;;;13.04;69.13;101372.19;5016874;28;45369;-76
2023/05/25 02:28:44;;;;;;;;;19.75;19.75;;;;;12.98;69.29;101370.63;5015251;28;45317;-70
2023/05/25 02:31:09;;;;;;;;;20.50;20.50;;;;;12.95;69.18;101381.31;5016600;28;45502;-68
2023/05/25 02:33:35;;;;;;;;;23.25;23.25;;;;;12.94;69.64;101384.88;5016558;28;46243;-71
2023/05/25 02:36:00;;;;;;;;;24.50;23.25;;;;;12.95;69.78;101382.19;5015661;28;62808;-71
2023/05/25 02:38:26;;;;;;;;;23.25;22.75;;;;;12.97;69.71;101393.56;5015129;28;45258;-69
2023/05/25 02:40:51;;;;;;;;;21.75;21.75;;;;;12.96;69.54;101383.03;5016762;28;45429;-71
2023/05/25 02:43:16;;;;;;;;;20.00;20.00;;;;;12.90;69.92;101392.06;5016337;28;45614;-72
2023/05/25 02:45:42;;;;;;;;;20.50;20.00;;;;;12.95;69.67;101405.06;5015808;28;58218;-71
2023/05/25 02:48:07;;;;;;;;;19.50;19.50;;;;;12.94;69.51;101401.59;5016833;28;45334;-75
2023/05/25 02:50:32;;;;;;;;;16.50;16.50;;;;;12.94;69.62;101393.66;5016494;28;45337;-76
2023/05/25 02:52:58;;;;;;;;;21.00;21.00;;;;;12.97;69.47;101393.56;5015998;28;59714;-73
2023/05/25 02:55:24;;;;;;;;;18.25;18.25;;;;;13.05;69.51;101395.88;5016839;28;55027;-73
2023/05/25 02:57:50;;;;;;;;;21.25;21.25;;;;;13.07;69.21;101398.50;5017279;28;45407;-72
2023/05/25 03:00:16;;;;;;;;;20.75;20.75;;;;;13.07;69.08;101395.84;5016588;28;45349;-75
2023/05/25 03:02:41;;;;;;;;;20.00;20.00;;;;;13.06;69.09;101400.25;5016500;28;45378;-73
2023/05/25 03:05:07;;;;;;;;;18.50;18.50;;;;;13.04;69.36;101401.25;5016816;28;45365;-71
2023/05/25 03:07:33;;;;;;;;;18.25;17.25;;;;;13.04;69.47;101396.81;5016651;28;45466;-77
2023/05/25 03:09:58;;;;;;;;;18.50;18.50;;;;;13.03;69.41;101396.88;5016408;28;45609;-75
2023/05/25 03:12:24;;;;;;;;;18.50;18.50;;;;;13.06;69.15;101404.69;5015633;28;46094;-73
2023/05/25 03:14:49;;;;;;;;;17.50;17.50;;;;;13.04;69.25;101411.81;5016013;28;45829;-74
2023/05/25 03:17:15;;;;;;;;;19.50;18.75;;;;;13.00;68.92;101414.56;5016331;28;45413;-72
2023/05/25 03:19:40;;;;;;;;;20.00;20.00;;;;;12.96;69.03;101409.44;5016123;28;45309;-71
2023/05/25 03:22:05;;;;;;;;;20.25;20.25;;;;;12.95;69.43;101413.00;5017024;28;46683;-76
2023/05/25 03:24:31;;;;;;;;;22.00;22.00;;;;;12.94;69.33;101411.28;5016022;28;45376;-75
2023/05/25 03:26:56;;;;;;;;;21.25;20.75;;;;;12.92;69.16;101411.34;5014372;28;45513;-71
2023/05/25 03:29:21;;;;;;;;;18.50;18.50;;;;;12.89;69.16;101411.47;5015891;28;45637;-75
2023/05/25 03:31:47;;;;;;;;;19.50;19.50;;;;;12.82;69.43;101416.09;5015132;28;51193;-72
2023/05/25 03:34:12;;;;;;;;;22.75;22.75;;;;;12.74;69.49;101414.66;5014596;28;49537;-75
2023/05/25 03:36:37;;;;;;;;;18.50;18.50;;;;;12.67;69.69;101428.03;5016529;28;45727;-75
2023/05/25 03:39:04;;;;;;;;;20.00;20.00;;;;;12.48;69.78;101401.47;5015907;28;45599;-74
2023/05/25 03:41:29;;;;;;;;;20.00;20.00;;;;;12.57;70.54;101437.22;5014294;28;47382;-76
2023/05/25 03:43:54;;;;;;;;;19.50;19.50;;;;;12.49;70.46;101431.34;5015769;28;45419;-73
2023/05/25 03:46:20;;;;;;;;;18.25;18.25;;;;;12.45;70.52;101427.97;5015471;28;45371;-75
2023/05/25 03:48:45;;;;;;;;;14.75;14.75;;;;;12.34;71.25;101424.81;5015768;28;45586;-76
2023/05/25 03:51:10;;;;;;;;;18.75;18.75;;;;;12.29;71.82;101438.16;5015412;28;51305;-77
2023/05/25 03:53:36;;;;;;;;;19.75;19.75;;;;;12.25;72.33;101431.25;5015595;28;45414;-76
2023/05/25 03:56:01;;;;;;;;;16.75;16.75;;;;;12.20;72.43;101441.09;5015403;28;45341;-75
2023/05/25 03:58:26;;;;;;;;;17.00;17.00;;;;;12.16;72.79;101442.13;5013944;28;45465;-77
2023/05/25 04:00:53;;;;;;;;;20.25;20.25;;;;;12.12;73.11;101438.72;5015296;28;46129;-76
2023/05/25 04:03:19;;;;;;;;;16.50;16.50;;;;;12.08;73.12;101434.44;5015677;28;45286;-75
2023/05/25 04:05:44;;;;;;;;;17.50;16.75;;;;;11.93;72.86;101414.69;5015413;28;45230;-75
2023/05/25 04:08:13;;;;;;;;;21.50;21.50;;;;;12.07;72.94;101427.44;5015700;28;45221;-66
2023/05/25 04:10:38;;;;;;;;;6.75;6.75;;;;;12.05;73.30;101434.56;5015312;28;45340;-66
2023/05/25 04:13:04;;;;;;;;;21.00;21.00;;;;;12.02;73.17;101439.94;5014913;28;45559;-71
2023/05/25 04:15:29;;;;;;;;;17.00;16.50;;;;;12.00;73.83;101432.06;5015261;28;45884;-73
2023/05/25 04:17:54;;;;;;;;;23.75;23.75;;;;;11.97;73.83;101425.09;5015357;28;45601;-74
2023/05/25 04:20:20;;;;;;;;;16.75;16.75;;;;;11.94;74.37;101424.34;5014981;28;45450;-71
2023/05/25 04:22:46;;;;;;;;;13.25;13.25;;;;;11.93;74.07;101431.38;5013866;28;45448;-75
2023/05/25 04:25:12;;;;;;;;;22.50;22.50;;;;;11.92;74.25;101434.91;5015560;28;45465;-74
2023/05/25 04:27:37;;;;;;;;;18.50;18.50;;;;;11.86;74.74;101435.13;5015366;28;45454;-71
2023/05/25 04:30:03;;;;;;;;;18.75;18.75;;;;;11.82;75.31;101430.84;5015415;28;46299;-72
2023/05/25 04:32:30;;;;;;;;;18.50;18.50;;;;;11.83;74.81;101435.22;5015553;28;45333;-74
2023/05/25 04:34:56;;;;;;;;;19.75;19.75;;;;;11.79;74.80;101436.22;5013887;28;45311;-74
2023/05/25 04:37:22;;;;;;;;;20.75;20.75;;;;;11.79;74.54;101439.75;5015266;28;45205;-75
2023/05/25 04:39:48;;;;;;;;;20.50;20.50;;;;;11.77;75.60;101445.94;5014881;28;45382;-74
2023/05/25 04:42:13;;;;;;;;;22.75;22.50;;;;;11.77;75.31;101440.69;5015073;28;45213;-72
2023/05/25 04:44:39;;;;;;;;;17.25;17.25;;;;;11.80;75.05;101453.75;5015022;28;45367;-74
2023/05/25 04:47:06;;;;;;;;;21.75;21.75;;;;;11.79;75.03;101454.69;5014883;28;46918;-68
2023/05/25 04:49:31;;;;;;;;;19.25;19.25;;;;;11.80;75.52;101454.66;5014738;28;45615;-70
2023/05/25 04:51:57;;;;;;;;;18.25;18.25;;;;;11.79;75.75;101455.56;5014900;28;45463;-68
2023/05/25 04:54:22;;;;;;;;;19.00;19.00;;;;;11.79;75.37;101466.09;5014979;28;45428;-77
2023/05/25 04:56:48;;;;;;;;;19.75;19.50;;;;;11.76;75.25;101455.66;5015459;28;45678;-70
2023/05/25 04:59:13;;;;;;;;;21.75;20.25;;;;;11.77;75.97;101452.09;5015226;28;46004;-71
2023/05/25 05:01:40;;;;;;;;;18.75;18.75;;;;;11.81;75.97;101460.75;5015040;28;45377;-77
2023/05/25 05:04:07;;;;;;;;;20.50;20.50;;;;;11.86;75.73;101452.72;5015508;28;45292;-76
2023/05/25 05:06:33;;;;;;;;;20.00;20.00;;;;;11.93;75.62;101446.34;5015493;28;45250;-75
2023/05/25 05:08:59;;;;;;;;;15.75;15.75;;;;;12.04;74.55;101452.16;5015090;28;45290;-74
2023/05/25 05:11:24;;;;;;;;;20.50;20.50;;;;;12.15;74.86;101446.53;5013655;28;45984;-76
2023/05/25 05:13:49;;;;;;;;;18.00;18.00;;;;;12.26;74.18;101460.25;5015607;28;45351;-74
2023/05/25 05:16:15;;;;;;;;;19.50;19.50;;;;;12.42;73.64;101459.72;5016351;28;45538;-75
2023/05/25 05:18:40;;;;;;;;;24.25;23.00;;;;;12.53;73.07;101472.53;5015593;28;46391;-72
2023/05/25 05:21:06;;;;;;;;;22.25;21.75;;;;;12.60;72.69;101471.41;5017007;28;45411;-76
2023/05/25 05:23:33;;;;;;;;;18.50;18.50;;;;;12.63;72.26;101468.66;5017104;28;45332;-75
2023/05/25 05:25:59;;;;;;;;;18.00;18.00;;;;;12.75;71.98;101477.09;5015605;28;45582;-66
2023/05/25 05:28:26;;;;;;;;;17.00;17.00;;;;;12.81;71.64;101471.59;5013504;28;48327;-75
2023/05/25 05:30:52;;;;;;;;;16.75;16.75;;;;;12.90;70.79;101480.97;5014499;28;45239;-75
2023/05/25 05:33:17;;;;;;;;;16.00;16.00;;;;;13.01;70.75;101481.44;5014994;28;45202;-73
2023/05/25 05:35:43;;;;;;;;;17.25;16.75;;;;;13.11;70.13;101481.97;5015079;28;45166;-77
2023/05/25 05:38:08;;;;;;;;;18.00;18.00;;;;;13.14;69.46;101479.22;5014437;28;45367;-74
2023/05/25 05:40:34;;;;;;;;;19.50;19.50;;;;;13.15;69.25;101478.31;5014460;28;45545;-68
2023/05/25 05:42:59;;;;;;;;;20.00;18.75;;;;;13.16;68.95;101472.09;5013198;28;45363;-75
2023/05/25 05:45:24;;;;;;;;;18.00;18.00;;;;;13.24;68.79;101477.09;5014712;28;45474;-76
2023/05/25 05:47:50;;;;;;;;;17.25;17.25;;;;;13.25;68.69;101476.16;5014385;28;49941;-76
2023/05/25 05:50:15;;;;;;;;;18.75;18.50;;;;;13.25;68.29;101481.44;5014393;28;54572;-73
2023/05/25 05:52:40;;;;;;;;;18.00;18.00;;;;;13.26;67.48;101483.22;5014611;28;45273;-72
2023/05/25 05:55:06;;;;;;;;;18.75;18.25;;;;;13.03;67.83;101449.69;5014487;28;45308;-76
2023/05/25 05:57:32;;;;;;;;;16.50;15.50;;;;;13.20;67.73;101475.47;5017755;28;45370;-77
2023/05/25 05:59:57;;;;;;;;;17.00;17.00;;;;;13.21;67.68;101483.34;5018165;28;45355;-75
2023/05/25 06:02:22;;;;;;;;;18.75;18.75;;;;;13.18;67.49;101496.69;5018520;28;45276;-71
2023/05/25 06:04:47;;;;;;;;;17.50;17.50;;;;;13.15;67.73;101491.50;5018937;28;45609;-72
2023/05/25 06:07:13;;;;;;;;;17.50;17.00;;;;;13.11;67.50;101497.81;5017013;28;55567;-67
2023/05/25 06:09:38;;;;;;;;;16.00;15.25;;;;;13.09;67.19;101503.16;5017289;28;45361;-72
2023/05/25 06:12:05;;;;;;;;;16.75;16.75;;;;;13.02;66.89;101490.25;5016025;28;45225;-69
2023/05/25 06:14:30;;;;;;;;;13.75;13.25;;;;;13.04;67.22;101497.16;5017941;28;45574;-64
2023/05/25 06:16:55;;;;;;;;;17.25;15.75;;;;;13.09;66.50;101507.59;5018126;28;45572;-67
2023/05/25 06:19:20;;;;;;;;;18.75;18.75;;;;;13.01;66.58;101494.63;5017844;28;45291;-66
2023/05/25 06:21:46;;;;;;;;;14.50;14.50;;;;;13.00;66.60;101507.00;5017827;28;45519;-76
2023/05/25 06:24:14;;;;;;;;;15.00;14.25;;;;;13.06;66.56;101507.69;5017845;28;45648;-73
2023/05/25 06:26:39;;;;;;;;;13.50;13.00;;;;;13.06;66.01;101512.97;5017163;28;45431;-74
2023/05/25 06:29:04;;;;;;;;;15.00;13.50;;;;;13.00;66.33;101508.75;4999570;28;45421;-70
2023/05/25 06:31:30;;;;;;;;;19.75;19.75;;;;;13.02;66.60;101527.22;5017395;28;45349;-74
2023/05/25 06:33:55;;;;;;;;;19.75;19.00;;;;;13.04;66.22;101526.22;5017461;28;45411;-74
2023/05/25 06:36:20;;;;;;;;;17.75;17.75;;;;;13.00;66.11;101514.03;5017654;28;45457;-70
2023/05/25 06:38:46;;;;;;;;;15.50;15.50;;;;;13.15;66.25;101518.78;5016832;28;45294;-73
2023/05/25 06:41:13;;;;;;;;;19.25;19.25;;;;;13.21;65.96;101528.28;5018313;28;45846;-76
2023/05/25 06:43:39;;;;;;;;;18.75;17.00;;;;;13.28;65.94;101534.22;5022446;28;45489;-77
2023/05/25 06:46:04;;;;;;;;;18.75;18.75;;;;;13.30;65.75;101530.59;5017584;28;46284;-77
2023/05/25 06:48:30;;;;;;;;;16.50;16.00;;;;;13.32;65.34;101519.09;5017214;28;45211;-71
2023/05/25 06:50:55;;;;;;;;;19.00;19.00;;;;;13.41;65.33;101531.97;5016870;28;45431;-71
2023/05/25 06:53:20;;;;;;;;;16.75;16.75;;;;;13.43;65.25;101524.88;5015925;28;45257;-72
2023/05/25 06:55:46;;;;;;;;;17.75;17.75;;;;;13.48;65.11;101530.00;5034125;28;46358;-80
2023/05/25 06:58:12;;;;;;;;;14.25;14.25;;;;;13.53;65.06;101531.53;5035220;28;61289;-80
2023/05/25 07:00:37;;;;;;;;;17.00;17.00;;;;;13.57;64.49;101519.94;5036751;28;45403;-76
2023/05/25 07:03:02;;;;;;;;;13.00;13.00;;;;;13.55;64.33;101516.47;5036992;28;45197;-75
2023/05/25 07:05:28;;;;;;;;;13.75;13.75;;;;;13.63;64.29;101521.50;5036327;28;46309;-80
2023/05/25 07:07:53;;;;;;;;;17.25;17.25;;;;;13.66;64.32;101516.09;5035395;28;45431;-66
2023/05/25 07:10:18;;;;;;;;;15.50;15.50;;;;;13.75;63.82;101524.59;5036496;28;45220;-74
2023/05/25 07:12:44;;;;;;;;;17.25;17.25;;;;;13.66;63.56;101496.69;5036804;28;45318;-73
2023/05/25 07:15:10;;;;;;;;;13.00;13.00;;;;;13.85;63.09;101521.53;5034189;28;45645;-73
2023/05/25 07:17:35;;;;;;;;;15.50;13.50;;;;;13.86;62.86;101519.75;5035370;28;45668;-71
2023/05/25 07:20:01;;;;;;;;;17.75;15.50;;;;;13.90;62.90;101523.16;5031750;28;45581;-72
2023/05/25 07:22:26;;;;;;;;;13.00;13.00;;;;;14.01;62.83;101531.50;5027954;28;45571;-65
2023/05/25 07:24:52;;;;;;;;;12.00;12.00;;;;;14.10;62.18;101531.16;5035275;28;45769;-69
2023/05/25 07:27:18;;;;;;;;;14.00;12.75;;;;;14.14;61.61;101531.88;5037049;28;45319;-68
2023/05/25 07:29:43;;;;;;;;;16.00;16.00;;;;;14.21;60.84;101530.69;5036923;28;45281;-70
2023/05/25 07:32:09;;;;;;;;;14.50;14.50;;;;;14.25;61.42;101527.00;5037135;28;45377;-68
2023/05/25 07:34:34;;;;;;;;;12.25;12.25;;;;;14.29;59.79;101523.31;5036905;28;45457;-68
2023/05/25 07:36:59;;;;;;;;;12.00;12.00;;;;;14.25;60.04;101511.13;5035018;28;45312;-75
2023/05/25 07:39:25;;;;;;;;;14.50;14.50;;;;;14.39;59.84;101521.16;5038818;28;45349;-70
2023/05/25 07:41:50;;;;;;;;;11.25;11.25;;;;;14.48;59.82;101521.69;5023694;28;45538;-76
2023/05/25 07:44:16;;;;;;;;;12.00;12.00;;;;;14.57;59.16;101518.66;5034780;28;46301;-75
2023/05/25 07:46:42;;;;;;;;;11.75;11.00;;;;;14.53;58.16;101496.78;5033963;28;45435;-70
2023/05/25 07:49:11;;;;;;;;;12.75;12.75;;;;;14.68;58.40;101519.06;5036036;28;45515;-80
2023/05/25 07:51:37;;;;;;;;;11.75;11.75;;;;;14.75;57.65;101523.22;5035876;28;45455;-77
2023/05/25 07:54:03;;;;;;;;;11.25;11.25;;;;;14.80;57.36;101527.44;5034341;28;45448;-74
2023/05/25 07:56:28;;;;;;;;;10.75;10.75;;;;;14.81;57.55;101514.16;5038012;28;45463;-72
2023/05/25 07:58:53;;;;;;;;;13.25;13.25;;;;;14.90;57.27;101527.00;5037282;28;45406;-77
2023/05/25 08:01:19;;;;;;;;;11.50;11.50;;;;;14.98;57.13;101531.97;5035005;28;45440;-74
2023/05/25 08:03:44;;;;;;;;;11.50;10.75;;;;;15.07;56.77;101527.19;5034395;28;45965;-77
2023/05/25 08:06:10;;;;;;;;;13.25;12.75;;;;;15.13;56.98;101521.63;5029152;28;52227;-75
2023/05/25 08:08:36;;;;;;;;;10.00;10.00;;;;;15.22;56.60;101534.47;5033831;28;45451;-76
2023/05/25 08:11:01;;;;;;;;;8.00;8.00;;;;;15.24;56.19;101510.53;5034537;28;45561;-77
2023/05/25 08:13:27;;;;;;;;;9.00;9.00;;;;;15.40;56.45;101522.19;5033223;28;46049;-72
2023/05/25 08:15:52;;;;;;;;;9.25;9.25;;;;;15.40;55.13;101513.34;5034683;28;45862;-73
2023/05/25 08:18:18;;;;;;;;;11.75;10.75;;;;;15.50;54.29;101521.75;5035340;28;45292;-76
2023/05/25 08:20:43;;;;;;;;;8.00;8.00;;;;;15.45;54.04;101498.97;5036280;28;45224;-76
2023/05/25 08:23:09;;;;;;;;;9.00;9.00;;;;;15.59;54.16;101524.00;5036470;28;46567;-73
2023/05/25 08:25:34;;;;;;;;;13.25;13.25;;;;;15.67;54.78;101519.19;5035819;28;45574;-78
2023/05/25 08:27:59;;;;;;;;;8.50;8.50;;;;;15.74;53.73;101525.94;5035933;28;45701;-72
2023/05/25 08:30:25;;;;;;;;;11.50;10.50;;;;;15.77;54.04;101525.78;5036116;28;47113;-72
2023/05/25 08:32:50;;;;;;;;;7.25;7.25;;;;;15.87;53.55;101522.69;5034468;28;46521;-76
2023/05/25 08:35:16;;;;;;;;;10.50;10.50;;;;;15.97;53.44;101517.84;5035387;28;45464;-79
2023/05/25 08:37:42;;;;;;;;;9.50;9.50;;;;;16.03;52.26;101512.25;5035750;28;45321;-76
2023/05/25 08:40:15;;;;;;;;;8.50;8.50;;;;;16.01;51.11;101496.38;5029530;28;45550;-77
2023/05/25 08:42:44;;;;;;;;;10.75;10.75;;;;;16.16;51.25;101501.88;5014135;28;47419;-76
2023/05/25 08:45:10;;;;;;;;;6.00;6.00;;;;;16.18;50.18;101514.16;5014784;28;45403;-73
2023/05/25 08:47:41;;;;;;;;;9.50;9.00;;;;;16.25;50.02;101519.16;5014252;28;45191;-78
2023/05/25 08:50:08;;;;;;;;;6.50;6.50;;;;;16.31;49.95;101517.03;5015686;28;45436;-76
2023/05/25 08:52:35;;;;;;;;;10.00;10.00;;;;;16.37;50.03;101526.50;5014171;28;48274;-75
2023/05/25 08:55:05;;;;;;;;;7.00;7.00;;;;;16.39;49.87;101526.41;5015253;28;45345;-74
2023/05/25 08:57:50;;;;;;;;;9.25;9.25;;;;;16.53;49.90;101529.28;5015917;28;45460;-77
2023/05/25 09:00:20;;;;;;;;;8.00;8.00;;;;;16.47;49.07;101509.19;5015611;28;45369;-77
2023/05/25 09:03:14;;;;;;;;;10.25;10.25;;;;;16.66;48.15;101534.81;5018935;28;46724;-75
2023/05/25 09:05:40;;;;;;;;;5.25;5.25;;;;;16.67;47.58;101531.22;5035876;28;45220;-76
2023/05/25 09:08:07;;;;;;;;;8.25;8.25;;;;;16.73;46.92;101532.72;5023122;28;45238;-77
2023/05/25 09:10:34;;;;;;;;;8.25;8.25;;;;;16.74;46.61;101523.81;5031657;28;45404;-78
2023/05/25 09:13:01;;;;;;;;;8.00;8.00;;;;;16.83;47.34;101519.78;5018342;28;46438;-71
2023/05/25 09:15:27;;;;;;;;;6.75;6.75;;;;;16.94;46.80;101530.72;5014469;28;45457;-76
2023/05/25 09:17:52;;;;;;;;;8.75;8.75;;;;;16.99;46.61;101522.56;5014785;28;45434;-77
2023/05/25 09:20:18;;;;;;;;;10.50;10.50;;;;;17.06;46.80;101527.47;5015388;28;45422;-78
2023/05/25 09:22:46;;;;;;;;;12.25;11.00;;;;;17.14;47.00;101528.88;5014927;28;46323;-78
2023/05/25 09:25:16;;;;;;;;;6.00;6.00;;;;;17.28;46.59;101520.16;5015203;28;45333;-78
2023/05/25 09:27:41;;;;;;;;;8.75;7.50;;;;;17.41;45.08;101515.03;5015177;28;45343;-75
2023/05/25 09:30:07;;;;;;;;;9.25;9.25;;;;;17.42;44.45;101512.28;5027489;28;45369;-78
2023/05/25 09:32:33;;;;;;;;;7.00;6.25;;;;;17.44;44.34;101515.72;5034251;28;45528;-77
2023/05/25 09:35:08;;;;;;;;;9.00;9.00;;;;;17.49;45.36;101512.81;5032677;28;45796;-79
2023/05/25 09:37:34;;;;;;;;;10.00;10.00;;;;;17.57;45.31;101523.91;5035533;28;45328;-79
2023/05/25 09:40:00;;;;;;;;;9.75;9.75;;;;;17.69;45.93;101514.41;5034139;28;45454;-78
2023/05/25 09:42:25;;;;;;;;;4.75;4.75;;;;;17.83;43.44;101515.44;5034528;28;47298;-76
2023/05/25 09:44:51;;;;;;;;;8.50;8.50;;;;;17.84;43.19;101510.00;5016920;28;45313;-74
2023/05/25 09:47:17;;;;;;;;;8.75;8.75;;;;;17.87;43.52;101509.81;5034646;28;45416;-78
2023/05/25 09:49:46;;;;;;;;;13.75;13.75;;;;;17.78;43.15;101495.25;5033263;28;45699;-75
2023/05/25 09:52:12;;;;;;;;;25.75;25.75;;;;;17.94;42.46;101521.84;5033994;28;45475;-75
2023/05/25 09:54:38;;;;;;;;;14.50;14.50;;;;;17.98;43.98;101521.66;5033917;28;45406;-75
2023/05/25 09:57:04;;;;;;;;;7.00;6.00;;;;;18.02;43.39;101520.59;5033297;28;45531;-73
2023/05/25 09:59:30;;;;;;;;;8.00;8.00;;;;;18.00;42.81;101514.47;5034268;28;45282;-75
2023/05/25 10:01:56;;;;;;;;;5.75;5.75;;;;;18.04;42.68;101524.03;5032703;28;46996;-75
2023/05/25 10:04:22;;;;;;;;;9.00;9.00;;;;;18.04;42.33;101522.22;5044622;28;45729;-76
2023/05/25 10:06:50;;;;;;;;;5.25;5.25;;;;;18.04;43.05;101510.72;5012305;28;45404;-76
2023/05/25 10:09:19;;;;;;;;;8.75;8.75;;;;;18.05;43.36;101512.44;5015054;28;45342;-73
2023/05/25 10:11:45;;;;;;;;;7.25;7.25;;;;;18.10;42.15;101518.38;5014702;28;46352;-73
2023/05/25 10:14:16;;;;;;;;;6.00;6.00;;;;;18.05;42.91;101513.28;5014653;28;45571;-74
2023/05/25 10:16:45;;;;;;;;;6.00;6.00;;;;;18.12;43.01;101521.81;5017219;28;45408;-76
2023/05/25 10:19:20;;;;;;;;;9.00;9.00;;;;;18.17;43.68;101533.03;5015607;28;45380;-77
2023/05/25 10:21:54;;;;;;;;;8.00;8.00;;;;;18.23;43.78;101522.03;5013277;28;47465;-77
2023/05/25 10:24:45;;;;;;;;;5.50;5.50;;;;;18.34;43.16;101531.22;5014984;28;45390;-75
2023/05/25 10:27:18;;;;;;;;;8.00;8.00;;;;;18.44;43.70;101532.38;5014513;28;45404;-78
2023/05/25 10:29:46;;;;;;;;;8.75;8.75;;;;;18.51;43.30;101527.53;5014422;28;45324;-80
2023/05/25 10:32:13;;;;;;;;;4.00;4.00;;;;;18.54;42.35;101527.38;5028314;28;47414;-78
2023/05/25 10:34:40;;;;;;;;;11.00;11.00;;;;;18.63;42.87;101523.31;5014321;28;45332;-79
2023/05/25 10:37:07;;;;;;;;;11.50;11.50;;;;;18.76;43.40;101526.97;5017767;28;45398;-78
2023/05/25 10:39:34;;;;;;;;;7.75;7.25;;;;;18.84;41.28;101534.50;5013216;28;45455;-74
2023/05/25 10:42:00;;;;;;;;;6.25;6.25;;;;;18.87;41.82;101525.44;5014860;28;47733;-76
2023/05/25 10:44:28;;;;;;;;;11.25;11.25;;;;;18.91;40.94;101532.31;5018148;28;45497;-73
2023/05/25 10:46:53;;;;;;;;;10.00;10.00;;;;;18.91;41.94;101532.31;5019183;28;45376;-74
2023/05/25 10:49:32;;;;;;;;;13.75;13.50;;;;;18.94;41.68;101534.78;5017627;28;52022;-77
2023/05/25 10:52:00;;;;;;;;;12.75;12.00;;;;;18.96;41.15;101540.88;5017513;28;46397;-77
2023/05/25 10:54:32;;;;;;;;;9.50;9.50;;;;;18.94;41.35;101530.34;5018173;28;45392;-77
2023/05/25 10:57:25;;;;;;;;;11.75;11.75;;;;;18.99;40.69;101535.41;5018727;28;45213;-75
2023/05/25 10:59:54;;;;;;;;;10.75;10.00;;;;;19.00;41.13;101536.28;5033232;28;45485;-74
2023/05/25 11:02:23;;;;;;;;;7.00;7.00;;;;;19.03;40.47;101528.94;5032371;28;47546;-79
2023/05/25 11:04:49;;;;;;;;;9.25;9.25;;;;;19.12;41.16;101528.41;5015986;28;45505;-74
2023/05/25 11:07:23;;;;;;;;;10.25;10.25;;;;;19.20;41.20;101524.41;5025200;28;45423;-77
2023/05/25 11:09:57;;;;;;;;;8.25;8.25;;;;;19.29;40.03;101546.97;5036746;28;45360;-77